createdAt,value
2023-03-05T00:01:15.441Z,10.30
2023-03-05T00:03:42.246Z,10.20
2023-03-05T00:06:09.169Z,10.20
2023-03-05T00:08:36.194Z,10.20
2023-03-05T00:11:05.982Z,10.20
2023-03-05T00:13:33.799Z,10.20
2023-03-05T00:16:04.465Z,10.20
2023-03-05T00:18:31.331Z,10.20
2023-03-05T00:20:58.178Z,10.20
2023-03-05T00:23:25.158Z,10.20
2023-03-05T00:25:52.465Z,10.20
2023-03-05T00:28:19.871Z,10.20
2023-03-05T00:30:47.765Z,10.20
2023-03-05T00:33:14.886Z,10.20
2023-03-05T00:35:43.586Z,10.20
2023-03-05T00:38:11.604Z,10.20
2023-03-05T00:40:40.581Z,10.20
2023-03-05T00:43:07.834Z,10.20
2023-03-05T00:45:35.159Z,10.20
2023-03-05T00:48:02.300Z,10.20
2023-03-05T00:50:29.203Z,10.20
2023-03-05T00:52:56.078Z,10.20
2023-03-05T00:55:22.954Z,10.20
2023-03-05T00:57:49.838Z,10.20
2023-03-05T01:00:17.325Z,10.20
2023-03-05T01:02:44.186Z,10.20
2023-03-05T01:05:13.857Z,10.20
2023-03-05T01:07:41.162Z,10.20
2023-03-05T01:10:09.342Z,10.20
2023-03-05T01:12:36.304Z,10.20
2023-03-05T01:15:03.980Z,10.20
2023-03-05T01:17:30.808Z,10.20
2023-03-05T01:19:57.657Z,10.20
2023-03-05T01:22:24.854Z,10.30
2023-03-05T01:24:51.642Z,10.20
2023-03-05T01:27:18.453Z,10.20
2023-03-05T01:29:45.245Z,10.20
2023-03-05T01:32:12.090Z,10.20
2023-03-05T01:34:39.298Z,10.20
2023-03-05T01:37:06.190Z,10.20
2023-03-05T01:39:32.987Z,10.20
2023-03-05T01:41:59.842Z,10.20
2023-03-05T01:44:29.486Z,10.20
2023-03-05T01:46:56.899Z,10.20
2023-03-05T01:49:33.742Z,10.20
2023-03-05T01:52:17.628Z,10.20
2023-03-05T01:54:50.787Z,10.20
2023-03-05T01:57:22.954Z,10.20
2023-03-05T01:59:54.988Z,10.20
2023-03-05T02:02:22.275Z,10.20
2023-03-05T02:04:58.000Z,10.20
2023-03-05T02:07:25.380Z,10.20
2023-03-05T02:09:52.261Z,10.20
2023-03-05T02:12:19.564Z,10.20
2023-03-05T02:14:50.757Z,10.20
2023-03-05T02:17:17.855Z,10.20
2023-03-05T02:19:48.279Z,10.10
2023-03-05T02:22:20.143Z,10.10
2023-03-05T02:24:47.097Z,10.10
2023-03-05T02:27:14.898Z,10.10
2023-03-05T02:29:45.538Z,10.10
2023-03-05T02:32:13.390Z,10.10
2023-03-05T02:34:41.225Z,10.10
2023-03-05T02:37:10.246Z,10.10
2023-03-05T02:39:38.386Z,10.10
2023-03-05T02:42:05.623Z,10.10
2023-03-05T02:44:32.671Z,10.10
2023-03-05T02:46:59.462Z,10.10
2023-03-05T02:49:26.348Z,10.10
2023-03-05T02:51:53.267Z,10.10
2023-03-05T02:54:20.379Z,10.00
2023-03-05T02:56:47.244Z,10.00
2023-03-05T02:59:14.099Z,10.00
2023-03-05T03:01:40.970Z,10.00
2023-03-05T03:04:07.873Z,10.00
2023-03-05T03:06:34.670Z,10.00
2023-03-05T03:09:01.486Z,9.90
2023-03-05T03:11:28.474Z,9.90
2023-03-05T03:13:55.279Z,9.90
2023-03-05T03:16:22.146Z,9.90
2023-03-05T03:18:49.195Z,9.90
2023-03-05T03:21:23.023Z,9.90
2023-03-05T03:23:50.513Z,10.00
2023-03-05T03:26:17.567Z,9.90
2023-03-05T03:28:44.594Z,9.90
2023-03-05T03:31:11.523Z,9.90
2023-03-05T03:33:38.398Z,9.90
2023-03-05T03:36:06.427Z,9.90
2023-03-05T03:38:33.247Z,9.90
2023-03-05T03:41:00.082Z,9.90
2023-03-05T03:43:26.930Z,9.90
2023-03-05T03:45:53.753Z,9.90
2023-03-05T03:48:20.620Z,9.90
2023-03-05T03:50:47.427Z,9.90
2023-03-05T03:53:14.491Z,9.90
2023-03-05T03:55:46.661Z,9.90
2023-03-05T03:58:14.175Z,9.90
2023-03-05T04:00:41.799Z,9.90
2023-03-05T04:03:09.295Z,9.90
2023-03-05T04:05:36.089Z,9.90
2023-03-05T04:08:03.529Z,9.90
2023-03-05T04:10:30.582Z,9.90
2023-03-05T04:12:57.364Z,9.90
2023-03-05T04:15:25.028Z,9.90
2023-03-05T04:17:51.960Z,9.90
2023-03-05T04:20:19.002Z,9.80
2023-03-05T04:22:45.763Z,9.80
2023-03-05T04:25:12.562Z,9.80
2023-03-05T04:27:40.392Z,9.80
2023-03-05T04:30:09.193Z,9.80
2023-03-05T04:32:36.149Z,9.80
2023-03-05T04:35:03.286Z,9.80
2023-03-05T04:37:30.106Z,9.80
2023-03-05T04:39:56.972Z,9.80
2023-03-05T04:42:24.186Z,9.80
2023-03-05T04:44:51.621Z,9.80
2023-03-05T04:47:19.397Z,9.80
2023-03-05T04:49:46.264Z,9.80
2023-03-05T04:52:13.729Z,9.80
2023-03-05T04:54:41.155Z,9.80
2023-03-05T04:57:08.110Z,9.80
2023-03-05T04:59:34.966Z,9.80
2023-03-05T05:02:01.792Z,9.80
2023-03-05T05:04:28.819Z,9.80
2023-03-05T05:06:57.156Z,9.80
2023-03-05T05:09:25.277Z,9.80
2023-03-05T05:11:52.154Z,9.80
2023-03-05T05:14:19.287Z,9.80
2023-03-05T05:16:46.113Z,9.80
2023-03-05T05:19:12.984Z,9.80
2023-03-05T05:21:40.040Z,9.80
2023-03-05T05:24:07.420Z,9.70
2023-03-05T05:26:34.332Z,9.70
2023-03-05T05:29:01.192Z,9.70
2023-03-05T05:31:28.230Z,9.80
2023-03-05T05:33:55.033Z,9.80
2023-03-05T05:36:22.643Z,9.70
2023-03-05T05:38:49.638Z,9.70
2023-03-05T05:41:18.623Z,9.80
2023-03-05T05:43:45.848Z,9.70
2023-03-05T05:46:15.805Z,9.80
2023-03-05T05:48:44.039Z,9.70
2023-03-05T05:51:14.965Z,9.70
2023-03-05T05:53:42.786Z,9.70
2023-03-05T05:56:11.623Z,9.70
2023-03-05T05:58:41.076Z,9.70
2023-03-05T06:01:14.024Z,9.70
2023-03-05T06:03:40.835Z,9.70
2023-03-05T06:06:12.722Z,9.70
2023-03-05T06:08:39.720Z,9.70
2023-03-05T06:11:07.152Z,9.70
2023-03-05T06:13:34.129Z,9.70
2023-03-05T06:16:03.783Z,9.70
2023-03-05T06:18:31.294Z,9.60
2023-03-05T06:21:03.488Z,9.70
2023-03-05T06:23:30.331Z,9.70
2023-03-05T06:26:00.387Z,9.60
2023-03-05T06:28:28.563Z,9.60
2023-03-05T06:31:10.504Z,9.60
2023-03-05T06:33:38.302Z,9.60
2023-03-05T06:36:10.893Z,9.70
2023-03-05T06:38:38.274Z,9.70
2023-03-05T06:41:09.260Z,9.70
2023-03-05T06:43:41.986Z,9.60
2023-03-05T06:46:13.276Z,9.70
2023-03-05T06:48:40.560Z,9.60
2023-03-05T06:51:17.644Z,9.70
2023-03-05T06:53:46.759Z,9.70
2023-03-05T06:56:16.745Z,9.70
2023-03-05T06:58:46.021Z,9.70
2023-03-05T07:01:14.586Z,9.70
2023-03-05T07:03:42.025Z,9.70
2023-03-05T07:06:12.232Z,9.70
2023-03-05T07:08:39.390Z,9.70
2023-03-05T07:11:17.451Z,9.70
2023-03-05T07:13:46.850Z,9.70
2023-03-05T07:16:20.176Z,9.80
2023-03-05T07:18:47.520Z,9.70
2023-03-05T07:21:20.513Z,9.70
2023-03-05T07:23:48.134Z,9.70
2023-03-05T07:26:16.380Z,9.80
2023-03-05T07:28:44.211Z,9.80
2023-03-05T07:31:21.219Z,9.80
2023-03-05T07:33:51.228Z,9.80
2023-03-05T07:36:18.420Z,9.80
2023-03-05T07:38:45.514Z,9.80
2023-03-05T07:41:19.649Z,9.80
2023-03-05T07:43:48.259Z,9.80
2023-03-05T07:46:17.029Z,9.90
2023-03-05T07:48:44.689Z,9.90
2023-03-05T07:51:16.768Z,9.80
2023-03-05T07:53:46.967Z,9.90
2023-03-05T07:56:22.655Z,9.80
2023-03-05T07:58:50.485Z,9.90
2023-03-05T08:01:17.356Z,9.90
2023-03-05T08:03:44.715Z,9.90
2023-03-05T08:06:12.632Z,9.90
2023-03-05T08:08:39.941Z,9.90
2023-03-05T08:11:11.224Z,9.90
2023-03-05T08:13:38.610Z,9.90
2023-03-05T08:16:07.868Z,9.90
2023-03-05T08:18:34.972Z,9.90
2023-03-05T08:21:02.200Z,9.90
2023-03-05T08:23:29.960Z,9.90
2023-03-05T08:25:57.170Z,9.90
2023-03-05T08:28:24.002Z,9.90
2023-03-05T08:30:50.898Z,9.90
2023-03-05T08:33:18.232Z,9.90
2023-03-05T08:35:45.742Z,10.00
2023-03-05T08:38:13.554Z,9.90
2023-03-05T08:40:40.425Z,10.00
2023-03-05T08:43:07.376Z,10.00
2023-03-05T08:45:34.666Z,10.00
2023-03-05T08:48:01.505Z,10.00
2023-03-05T08:50:28.400Z,10.00
2023-03-05T08:52:57.021Z,10.00
2023-03-05T08:55:23.978Z,10.00
2023-03-05T08:57:51.006Z,10.00
2023-03-05T09:00:18.367Z,10.00
2023-03-05T09:02:45.279Z,10.00
2023-03-05T09:05:12.087Z,10.00
2023-03-05T09:07:39.156Z,10.00
2023-03-05T09:10:07.382Z,10.10
2023-03-05T09:12:34.191Z,10.10
2023-03-05T09:15:00.993Z,10.10
2023-03-05T09:17:27.751Z,10.10
2023-03-05T09:19:54.540Z,10.10
2023-03-05T09:22:21.354Z,10.10
2023-03-05T09:24:48.119Z,10.10
2023-03-05T09:27:14.928Z,10.20
2023-03-05T09:29:43.142Z,10.20
2023-03-05T09:32:10.468Z,10.20
2023-03-05T09:34:37.510Z,10.20
2023-03-05T09:37:04.561Z,10.20
2023-03-05T09:39:31.438Z,10.20
2023-03-05T09:42:25.345Z,10.20
2023-03-05T09:44:58.716Z,10.20
2023-03-05T09:47:38.300Z,10.30
2023-03-05T09:50:36.211Z,10.30
2023-03-05T09:53:11.802Z,10.30
2023-03-05T09:55:43.958Z,10.30
2023-03-05T09:58:25.449Z,10.30
2023-03-05T10:01:00.596Z,10.30
2023-03-05T10:03:36.435Z,10.40
2023-03-05T10:06:22.142Z,10.40
2023-03-05T10:08:54.320Z,10.40
2023-03-05T10:11:32.965Z,10.40
2023-03-05T10:13:59.885Z,10.40
2023-03-05T10:16:58.074Z,10.40
2023-03-05T10:19:41.835Z,10.50
2023-03-05T10:22:08.550Z,10.50
2023-03-05T10:24:35.286Z,10.50
2023-03-05T10:27:33.629Z,10.50
2023-03-05T10:30:17.470Z,10.50
2023-03-05T10:33:03.414Z,10.50
2023-03-05T10:35:48.966Z,10.50
2023-03-05T10:38:24.968Z,10.60
2023-03-05T10:41:08.581Z,10.60
2023-03-05T10:43:46.639Z,10.60
2023-03-05T10:46:18.783Z,10.60
2023-03-05T10:48:53.308Z,10.70
2023-03-05T10:51:40.956Z,10.70
2023-03-05T10:54:30.735Z,10.70
2023-03-05T10:57:25.312Z,10.70
2023-03-05T10:59:58.739Z,10.70
2023-03-05T11:02:25.722Z,10.80
2023-03-05T11:04:54.495Z,10.80
2023-03-05T11:07:22.768Z,10.80
2023-03-05T11:10:16.828Z,10.80
2023-03-05T11:12:45.032Z,10.80
2023-03-05T11:15:14.579Z,10.90
2023-03-05T11:18:03.762Z,10.90
2023-03-05T11:20:34.317Z,10.90
2023-03-05T11:23:15.767Z,10.80
2023-03-05T11:26:02.231Z,10.90
2023-03-05T11:28:33.674Z,10.90
2023-03-05T11:31:02.913Z,10.90
2023-03-05T11:33:30.708Z,10.90
2023-03-05T11:36:17.792Z,10.90
2023-03-05T11:38:52.325Z,10.90
2023-03-05T11:41:24.737Z,10.90
2023-03-05T11:43:53.779Z,11.00
2023-03-05T11:46:21.859Z,10.90
2023-03-05T11:48:50.128Z,10.90
2023-03-05T11:51:22.493Z,11.00
2023-03-05T11:53:54.433Z,11.00
2023-03-05T11:56:26.175Z,11.00
2023-03-05T11:59:16.421Z,11.00
2023-03-05T12:01:50.741Z,10.90
2023-03-05T12:04:17.673Z,11.00
2023-03-05T12:06:47.064Z,11.00
2023-03-05T12:09:43.276Z,11.00
2023-03-05T12:12:39.691Z,11.00
2023-03-05T12:15:12.577Z,11.00
2023-03-05T12:17:39.818Z,11.00
2023-03-05T12:20:36.603Z,11.00
2023-03-05T12:23:03.731Z,11.00
2023-03-05T12:25:46.849Z,11.00
2023-03-05T12:28:16.670Z,11.00
2023-03-05T12:30:43.642Z,11.00
2023-03-05T12:33:34.833Z,11.00
2023-03-05T12:36:25.010Z,11.00
2023-03-05T12:38:52.604Z,11.00
2023-03-05T12:41:27.800Z,11.00
2023-03-05T12:44:06.660Z,10.90
2023-03-05T12:46:38.011Z,10.90
2023-03-05T12:49:28.005Z,11.00
2023-03-05T12:51:56.987Z,10.90
2023-03-05T12:54:40.979Z,11.00
2023-03-05T12:57:23.843Z,11.00
2023-03-05T12:59:59.574Z,11.00
2023-03-05T13:02:28.408Z,11.00
2023-03-05T13:05:00.438Z,11.00
2023-03-05T13:07:27.310Z,11.00
2023-03-05T13:09:56.027Z,11.00
2023-03-05T13:12:24.975Z,11.00
2023-03-05T13:15:14.452Z,11.00
2023-03-05T13:18:00.389Z,11.00
2023-03-05T13:20:34.755Z,11.00
2023-03-05T13:23:04.537Z,11.00
2023-03-05T13:25:31.653Z,11.00
2023-03-05T13:28:10.272Z,11.10
2023-03-05T13:30:37.373Z,11.10
2023-03-05T13:33:06.020Z,11.10
2023-03-05T13:35:33.570Z,11.10
2023-03-05T13:38:02.130Z,11.10
2023-03-05T13:40:31.477Z,11.10
2023-03-05T13:43:12.475Z,11.10
2023-03-05T13:45:40.109Z,11.10
2023-03-05T13:48:07.427Z,11.10
2023-03-05T13:50:39.287Z,11.20
2023-03-05T13:53:20.154Z,11.20
2023-03-05T13:55:48.842Z,11.20
2023-03-05T13:58:41.879Z,11.20
2023-03-05T14:01:29.100Z,11.20
2023-03-05T14:04:00.728Z,11.20
2023-03-05T14:06:29.149Z,11.30
2023-03-05T14:09:04.626Z,11.20
2023-03-05T14:11:31.572Z,11.20
2023-03-05T14:14:17.768Z,11.20
2023-03-05T14:16:45.097Z,11.30
2023-03-05T14:19:36.063Z,11.30
2023-03-05T14:22:04.972Z,11.30
2023-03-05T14:24:33.373Z,11.30
2023-03-05T14:27:07.769Z,11.30
2023-03-05T14:29:34.700Z,11.30
2023-03-05T14:32:07.781Z,11.30
2023-03-05T14:34:40.835Z,11.30
2023-03-05T14:37:23.956Z,11.30
2023-03-05T14:39:52.246Z,11.30
2023-03-05T14:42:27.500Z,11.30
2023-03-05T14:44:56.340Z,11.30
2023-03-05T14:47:24.617Z,11.30
2023-03-05T14:49:51.579Z,11.30
2023-03-05T14:52:21.935Z,11.30
2023-03-05T14:54:49.050Z,11.30
2023-03-05T14:57:20.996Z,11.30
2023-03-05T14:59:47.868Z,11.30
2023-03-05T15:02:17.605Z,11.30
2023-03-05T15:04:46.440Z,11.30
2023-03-05T15:07:17.744Z,11.30
2023-03-05T15:09:44.887Z,11.30
2023-03-05T15:12:13.555Z,11.30
2023-03-05T15:14:42.190Z,11.30
2023-03-05T15:17:36.134Z,11.30
2023-03-05T15:20:09.962Z,11.30
2023-03-05T15:22:37.609Z,11.30
2023-03-05T15:25:04.856Z,11.30
2023-03-05T15:27:31.944Z,11.30
2023-03-05T15:29:59.652Z,11.30
2023-03-05T15:32:28.942Z,11.30
2023-03-05T15:34:56.538Z,11.30
2023-03-05T15:37:23.726Z,11.30
2023-03-05T15:39:50.505Z,11.30
2023-03-05T15:42:17.461Z,11.30
2023-03-05T15:44:44.446Z,11.30
2023-03-05T15:47:11.308Z,11.20
2023-03-05T15:49:38.071Z,11.20
2023-03-05T15:52:05.139Z,11.20
2023-03-05T15:54:31.957Z,11.20
2023-03-05T15:56:58.736Z,11.20
2023-03-05T15:59:26.877Z,11.20
2023-03-05T16:01:53.806Z,11.20
2023-03-05T16:04:20.580Z,11.20
2023-03-05T16:06:49.469Z,11.20
2023-03-05T16:09:19.572Z,11.20
2023-03-05T16:11:49.126Z,11.20
2023-03-05T16:14:21.282Z,11.20
2023-03-05T16:16:48.621Z,11.20
2023-03-05T16:19:17.814Z,11.20
2023-03-05T16:21:45.332Z,11.20
2023-03-05T16:24:13.050Z,11.20
2023-03-05T16:26:41.113Z,11.10
2023-03-05T16:29:08.670Z,11.20
2023-03-05T16:31:38.189Z,11.20
2023-03-05T16:34:05.099Z,11.10
2023-03-05T16:36:35.392Z,11.10
2023-03-05T16:39:04.666Z,11.10
2023-03-05T16:41:31.652Z,11.10
2023-03-05T16:43:58.874Z,11.10
2023-03-05T16:46:28.382Z,11.10
2023-03-05T16:48:55.849Z,11.10
2023-03-05T16:51:23.060Z,11.00
2023-03-05T16:53:50.552Z,11.10
2023-03-05T16:56:18.169Z,11.00
2023-03-05T16:58:45.418Z,11.00
2023-03-05T17:01:14.894Z,11.00
2023-03-05T17:03:43.446Z,11.00
2023-03-05T17:06:13.149Z,11.00
2023-03-05T17:08:41.057Z,11.00
2023-03-05T17:11:08.097Z,11.00
2023-03-05T17:13:35.556Z,11.00
2023-03-05T17:16:03.084Z,11.00
2023-03-05T17:18:29.990Z,11.00
2023-03-05T17:20:57.012Z,10.90
2023-03-05T17:23:24.616Z,10.90
2023-03-05T17:25:51.420Z,10.90
2023-03-05T17:28:18.380Z,10.90
2023-03-05T17:30:45.238Z,10.90
2023-03-05T17:33:12.867Z,10.90
2023-03-05T17:35:43.115Z,10.90
2023-03-05T17:38:10.999Z,10.90
2023-03-05T17:40:39.126Z,10.90
2023-03-05T17:43:06.668Z,10.90
2023-03-05T17:45:35.341Z,10.90
2023-03-05T17:48:02.866Z,10.90
2023-03-05T17:50:29.669Z,10.90
2023-03-05T17:52:56.542Z,10.90
2023-03-05T17:55:24.942Z,10.90
2023-03-05T17:57:51.841Z,10.90
2023-03-05T18:00:23.430Z,10.90
2023-03-05T18:02:50.955Z,10.90
2023-03-05T18:05:19.907Z,10.90
2023-03-05T18:07:47.055Z,10.90
2023-03-05T18:10:14.710Z,10.90
2023-03-05T18:12:41.998Z,10.90
2023-03-05T18:15:11.243Z,10.90
2023-03-05T18:17:38.119Z,10.90
2023-03-05T18:20:06.197Z,10.90
2023-03-05T18:22:33.358Z,10.90
2023-03-05T18:25:00.173Z,10.90
2023-03-05T18:27:27.121Z,10.90
2023-03-05T18:29:54.231Z,10.90
2023-03-05T18:32:24.250Z,10.90
2023-03-05T18:34:51.335Z,10.90
2023-03-05T18:37:18.363Z,10.90
2023-03-05T18:39:45.426Z,10.80
2023-03-05T18:42:13.571Z,10.80
2023-03-05T18:44:41.434Z,10.80
2023-03-05T18:47:08.485Z,10.80
2023-03-05T18:49:35.499Z,10.80
2023-03-05T18:52:03.369Z,10.80
2023-03-05T18:54:30.362Z,10.80
2023-03-05T18:56:57.156Z,10.80
2023-03-05T18:59:23.934Z,10.70
2023-03-05T19:01:50.808Z,10.70
2023-03-05T19:04:17.614Z,10.70
2023-03-05T19:06:44.674Z,10.70
2023-03-05T19:09:20.846Z,10.70
2023-03-05T19:11:48.107Z,10.70
2023-03-05T19:14:14.988Z,10.70
2023-03-05T19:16:44.092Z,10.70
2023-03-05T19:19:24.304Z,10.70
2023-03-05T19:21:59.703Z,10.70
2023-03-05T19:24:29.066Z,10.70
2023-03-05T19:27:00.202Z,10.70
2023-03-05T19:29:32.768Z,10.70
2023-03-05T19:31:59.748Z,10.70
2023-03-05T19:34:26.548Z,10.70
2023-03-05T19:36:53.338Z,10.70
2023-03-05T19:39:21.241Z,10.70
2023-03-05T19:41:49.562Z,10.70
2023-03-05T19:44:16.826Z,10.70
2023-03-05T19:46:44.240Z,10.70
2023-03-05T19:49:11.757Z,10.70
2023-03-05T19:51:40.561Z,10.70
2023-03-05T19:54:07.631Z,10.70
2023-03-05T19:56:37.955Z,10.70
2023-03-05T19:59:04.948Z,10.70
2023-03-05T20:01:32.193Z,10.70
2023-03-05T20:04:00.959Z,10.70
2023-03-05T20:06:29.797Z,10.70
2023-03-05T20:08:58.043Z,10.70
2023-03-05T20:11:26.459Z,10.70
2023-03-05T20:13:56.037Z,10.70
2023-03-05T20:16:26.148Z,10.70
2023-03-05T20:18:55.002Z,10.70
2023-03-05T20:21:28.240Z,10.70
2023-03-05T20:24:01.514Z,10.70
2023-03-05T20:26:29.269Z,10.70
2023-03-05T20:28:57.200Z,10.70
2023-03-05T20:31:26.860Z,10.60
2023-03-05T20:33:54.240Z,10.60
2023-03-05T20:36:21.093Z,10.60
2023-03-05T20:38:47.935Z,10.60
2023-03-05T20:41:17.188Z,10.60
2023-03-05T20:43:47.576Z,10.60
2023-03-05T20:46:35.077Z,10.60
2023-03-05T20:49:03.883Z,10.60
2023-03-05T20:51:36.199Z,10.60
2023-03-05T20:54:06.836Z,10.60
2023-03-05T20:56:35.300Z,10.60
2023-03-05T20:59:04.991Z,10.60
2023-03-05T21:01:34.619Z,10.60
2023-03-05T21:04:02.054Z,10.60
2023-03-05T21:06:30.618Z,10.60
2023-03-05T21:08:58.115Z,10.60
2023-03-05T21:11:25.422Z,10.60
2023-03-05T21:13:52.508Z,10.60
2023-03-05T21:16:22.561Z,10.60
2023-03-05T21:18:51.025Z,10.60
2023-03-05T21:21:18.313Z,10.60
2023-03-05T21:23:46.503Z,10.50
2023-03-05T21:26:13.670Z,10.50
2023-03-05T21:28:41.285Z,10.50
2023-03-05T21:31:10.858Z,10.50
2023-03-05T21:33:38.564Z,10.50
2023-03-05T21:36:05.792Z,10.50
2023-03-05T21:38:34.072Z,10.50
2023-03-05T21:41:02.409Z,10.50
2023-03-05T21:43:31.338Z,10.50
2023-03-05T21:46:01.305Z,10.50
2023-03-05T21:48:28.311Z,10.50
2023-03-05T21:50:55.511Z,10.50
2023-03-05T21:53:23.027Z,10.50
2023-03-05T21:55:56.684Z,10.50
2023-03-05T21:58:23.512Z,10.50
2023-03-05T22:00:50.287Z,10.50
2023-03-05T22:03:17.145Z,10.50
2023-03-05T22:05:44.493Z,10.50
2023-03-05T22:08:11.302Z,10.50
2023-03-05T22:10:41.285Z,10.50
2023-03-05T22:13:10.380Z,10.50
2023-03-05T22:15:54.430Z,10.50
2023-03-05T22:18:27.327Z,10.50
2023-03-05T22:20:55.022Z,10.50
2023-03-05T22:23:24.075Z,10.50
2023-03-05T22:25:57.143Z,10.50
2023-03-05T22:28:24.155Z,10.40
2023-03-05T22:30:51.150Z,10.40
2023-03-05T22:33:17.949Z,10.40
2023-03-05T22:35:45.016Z,10.40
2023-03-05T22:38:12.523Z,10.40
2023-03-05T22:40:45.927Z,10.40
2023-03-05T22:43:13.657Z,10.40
2023-03-05T22:45:41.070Z,10.40
2023-03-05T22:48:09.870Z,10.40
2023-03-05T22:50:41.120Z,10.40
2023-03-05T22:53:08.496Z,10.40
2023-03-05T22:55:41.965Z,10.40
2023-03-05T22:58:09.749Z,10.40
2023-03-05T23:00:37.086Z,10.40
2023-03-05T23:03:04.136Z,10.40
2023-03-05T23:05:30.949Z,10.40
2023-03-05T23:07:57.813Z,10.40
2023-03-05T23:10:28.548Z,10.40
2023-03-05T23:12:58.466Z,10.40
2023-03-05T23:15:36.403Z,10.40
2023-03-05T23:18:04.227Z,10.40
2023-03-05T23:20:34.716Z,10.40
2023-03-05T23:23:02.145Z,10.40
2023-03-05T23:25:32.015Z,10.30
2023-03-05T23:27:59.001Z,10.30
2023-03-05T23:30:31.374Z,10.30
2023-03-05T23:33:02.602Z,10.30
2023-03-05T23:35:38.359Z,10.30
2023-03-05T23:38:08.534Z,10.30
2023-03-05T23:40:42.965Z,10.30
2023-03-05T23:43:10.197Z,10.30
2023-03-05T23:45:37.686Z,10.30
2023-03-05T23:48:04.875Z,10.30
2023-03-05T23:50:34.687Z,10.30
2023-03-05T23:53:02.500Z,10.30
2023-03-05T23:55:41.082Z,10.30
2023-03-05T23:58:08.228Z,10.30
